createdAt,value
2023-06-17T00:03:11.035Z,100080.88
2023-06-17T00:08:10.843Z,100078.66
2023-06-17T00:13:10.260Z,100080.06
2023-06-17T00:18:09.086Z,100077.03
2023-06-17T00:23:09.668Z,100076.22
2023-06-17T00:28:08.638Z,100088.44
2023-06-17T00:33:08.135Z,100077.31
2023-06-17T00:38:07.145Z,100087.13
2023-06-17T00:43:06.145Z,100075.94
2023-06-17T00:48:06.347Z,100076.47
2023-06-17T00:53:06.647Z,100079.44
2023-06-17T00:58:05.846Z,100070.41
2023-06-17T01:03:06.645Z,100076.75
2023-06-17T01:08:21.214Z,100071.53
2023-06-17T01:13:20.538Z,100066.09
2023-06-17T01:18:21.416Z,100063.94
2023-06-17T01:23:22.570Z,100062.06
2023-06-17T01:28:25.698Z,100057.69
2023-06-17T01:33:25.625Z,100063.91
2023-06-17T01:38:40.755Z,100064.69
2023-06-17T01:43:42.419Z,100055.78
2023-06-17T01:48:42.556Z,100059.06
2023-06-17T01:53:41.487Z,100052.75
2023-06-17T01:58:41.491Z,100055.72
2023-06-17T02:03:44.066Z,100057.41
2023-06-17T02:08:43.424Z,100050.59
2023-06-17T02:13:42.455Z,100057.13
2023-06-17T02:18:41.361Z,100052.00
2023-06-17T02:23:42.024Z,100050.59
2023-06-17T02:28:43.853Z,100045.66
2023-06-17T02:33:42.688Z,100043.25
2023-06-17T02:38:43.351Z,100039.44
2023-06-17T02:43:42.875Z,100054.69
2023-06-17T02:48:41.718Z,100048.97
2023-06-17T02:53:41.821Z,100047.63
2023-06-17T02:58:44.570Z,100046.84
2023-06-17T03:03:44.578Z,100042.22
2023-06-17T03:08:43.712Z,100043.84
2023-06-17T03:13:42.779Z,100047.09
2023-06-17T03:18:52.469Z,100047.91
2023-06-17T03:23:52.010Z,100042.72
2023-06-17T03:28:52.336Z,100048.72
2023-06-17T03:33:53.180Z,100053.63
2023-06-17T03:38:52.725Z,100059.09
2023-06-17T03:43:52.534Z,100049.25
2023-06-17T03:48:52.059Z,100053.34
2023-06-17T03:53:51.893Z,100053.63
2023-06-17T03:58:51.384Z,100056.91
2023-06-17T04:03:52.370Z,100063.97
2023-06-17T04:08:51.803Z,100062.88
2023-06-17T04:13:50.762Z,100060.44
2023-06-17T04:18:50.127Z,100054.41
2023-06-17T04:23:48.938Z,100059.59
2023-06-17T04:28:49.624Z,100062.13
2023-06-17T04:33:49.349Z,100053.97
2023-06-17T04:38:51.194Z,100059.16
2023-06-17T04:43:50.803Z,100062.78
2023-06-17T04:48:51.743Z,100059.56
2023-06-17T04:53:51.636Z,100064.91
2023-06-17T04:58:50.698Z,100070.22
2023-06-17T05:03:49.732Z,100066.16
2023-06-17T05:08:48.686Z,100063.97
2023-06-17T05:13:48.099Z,100064.66
2023-06-17T05:18:47.373Z,100061.84
2023-06-17T05:23:46.476Z,100071.22
2023-06-17T05:28:45.494Z,100063.06
2023-06-17T05:33:44.630Z,100063.06
2023-06-17T05:38:43.873Z,100071.41
2023-06-17T05:43:44.164Z,100077.00
2023-06-17T05:48:43.283Z,100078.06
2023-06-17T05:53:45.110Z,100066.56
2023-06-17T05:58:46.019Z,100086.97
2023-06-17T06:03:54.512Z,100083.22
2023-06-17T06:08:53.553Z,100087.16
2023-06-17T06:13:52.749Z,100085.69
2023-06-17T06:18:52.253Z,100088.41
2023-06-17T06:23:51.519Z,100080.94
2023-06-17T06:28:50.856Z,100075.22
2023-06-17T06:33:51.081Z,100092.44
2023-06-17T06:38:50.235Z,100093.22
2023-06-17T06:43:49.867Z,100091.50
2023-06-17T06:48:51.454Z,100093.88
2023-06-17T06:53:50.559Z,100092.59
2023-06-17T06:58:50.097Z,100096.28
2023-06-17T07:03:49.346Z,100096.63
2023-06-17T07:08:48.685Z,100089.41
2023-06-17T07:13:47.925Z,100092.06
2023-06-17T07:18:46.994Z,100093.09
2023-06-17T07:23:46.152Z,100097.00
2023-06-17T07:28:45.802Z,100095.41
2023-06-17T07:33:44.888Z,100094.94
2023-06-17T07:38:44.278Z,100100.28
2023-06-17T07:43:43.585Z,100097.44
2023-06-17T07:48:45.184Z,100090.69
2023-06-17T07:53:44.162Z,100091.06
2023-06-17T07:58:45.228Z,100084.16
2023-06-17T08:03:44.610Z,100081.28
2023-06-17T08:08:44.466Z,100096.75
2023-06-17T08:13:43.576Z,100090.66
2023-06-17T08:18:42.493Z,100087.91
2023-06-17T08:23:42.536Z,100092.38
2023-06-17T08:28:41.553Z,100077.84
2023-06-17T08:33:41.080Z,100082.81
2023-06-17T08:38:40.293Z,100080.38
2023-06-17T08:43:40.764Z,100080.47
2023-06-17T08:48:41.518Z,100075.50
2023-06-17T08:53:45.279Z,100083.00
2023-06-17T08:58:45.298Z,100083.91
2023-06-17T09:03:44.931Z,100074.22
2023-06-17T09:08:44.173Z,100074.56
2023-06-17T09:13:43.435Z,100062.44
2023-06-17T09:18:42.663Z,100057.44
2023-06-17T09:23:41.623Z,100045.09
2023-06-17T09:28:41.212Z,100047.84
2023-06-17T09:33:45.053Z,100051.53
2023-06-17T09:38:44.746Z,100049.69
2023-06-17T09:43:50.286Z,100058.34
2023-06-17T09:48:51.908Z,100043.66
2023-06-17T09:53:54.237Z,100042.84
2023-06-17T09:58:54.737Z,100052.03
2023-06-17T10:03:53.699Z,100045.50
2023-06-17T10:08:54.084Z,100041.91
2023-06-17T10:14:33.789Z,100039.13
2023-06-17T10:19:36.190Z,100031.53
2023-06-17T10:24:36.006Z,100025.69
2023-06-17T10:29:35.636Z,100030.59
2023-06-17T10:34:34.564Z,100040.69
2023-06-17T10:39:33.627Z,100021.72
2023-06-17T10:44:36.067Z,100033.25
2023-06-17T10:49:42.492Z,100023.25
2023-06-17T10:54:53.557Z,100018.66
2023-06-17T10:59:52.682Z,100036.31
2023-06-17T11:04:53.089Z,100025.78
2023-06-17T11:09:52.719Z,100019.94
2023-06-17T11:14:51.777Z,100023.31
2023-06-17T11:19:50.746Z,100011.13
2023-06-17T11:24:49.733Z,100015.88
2023-06-17T11:29:49.072Z,100009.56
2023-06-17T11:34:48.113Z,100007.22
2023-06-17T11:39:47.029Z,99998.06
2023-06-17T11:44:46.128Z,99997.91
2023-06-17T11:49:45.586Z,100001.19
2023-06-17T11:54:51.329Z,100007.47
2023-06-17T11:59:52.295Z,100011.59
2023-06-17T12:04:51.648Z,100007.69
2023-06-17T12:09:55.303Z,100008.53
2023-06-17T12:15:15.071Z,100009.28
2023-06-17T12:20:21.898Z,100015.03
2023-06-17T12:25:21.520Z,100001.03
2023-06-17T12:30:20.696Z,99998.50
2023-06-17T12:35:20.766Z,99998.59
2023-06-17T12:40:20.215Z,100000.59
2023-06-17T12:45:19.638Z,99998.56
2023-06-17T12:50:18.844Z,99992.63
2023-06-17T12:55:18.642Z,99998.31
2023-06-17T13:00:18.975Z,99990.06
2023-06-17T13:05:18.333Z,99987.50
2023-06-17T13:10:17.772Z,99982.25
2023-06-17T13:15:16.867Z,99981.56
2023-06-17T13:20:16.878Z,99982.88
2023-06-17T13:25:17.553Z,99981.66
2023-06-17T13:30:16.645Z,99975.28
2023-06-17T13:35:16.795Z,99969.22
2023-06-17T13:40:16.429Z,99969.00
2023-06-17T13:45:15.950Z,99953.25
2023-06-17T13:50:15.201Z,99960.25
2023-06-17T13:55:14.579Z,99962.63
2023-06-17T14:00:14.085Z,99968.00
2023-06-17T14:05:13.749Z,99976.31
2023-06-17T14:10:13.041Z,99983.63
2023-06-17T14:15:12.255Z,99984.44
2023-06-17T14:20:12.059Z,99967.38
2023-06-17T14:25:11.467Z,99952.91
2023-06-17T14:30:13.174Z,99957.31
2023-06-17T14:35:14.978Z,99953.28
2023-06-17T14:40:14.932Z,99954.78
2023-06-17T14:45:17.276Z,99958.94
2023-06-17T14:50:16.629Z,99965.06
2023-06-17T14:55:16.437Z,99969.31
2023-06-17T15:00:16.069Z,99979.66
2023-06-17T15:05:16.067Z,99981.28
2023-06-17T15:10:15.629Z,99977.69
2023-06-17T15:15:15.495Z,99993.00
2023-06-17T15:20:14.514Z,99994.38
2023-06-17T15:25:13.479Z,100012.66
2023-06-17T15:30:13.124Z,100014.84
2023-06-17T15:35:12.075Z,100017.84
2023-06-17T15:40:12.018Z,100020.00
2023-06-17T15:45:11.798Z,100020.59
2023-06-17T15:50:11.423Z,100019.50
2023-06-17T15:55:11.671Z,100041.09
2023-06-17T16:00:11.075Z,100050.88
2023-06-17T16:05:14.659Z,100061.00
2023-06-17T16:10:13.945Z,100067.88
2023-06-17T16:15:13.069Z,100072.81
2023-06-17T16:20:12.636Z,100033.09
2023-06-17T16:25:11.740Z,100051.69
2023-06-17T16:30:11.193Z,100050.13
2023-06-17T16:35:10.347Z,100040.06
2023-06-17T16:40:09.600Z,100045.75
2023-06-17T16:45:09.034Z,100055.03
2023-06-17T16:50:08.482Z,100047.00
2023-06-17T16:55:09.584Z,100043.63
2023-06-17T17:00:09.014Z,100041.44
2023-06-17T17:05:08.284Z,100045.53
2023-06-17T17:10:07.389Z,100047.50
2023-06-17T17:15:09.679Z,100049.41
2023-06-17T17:20:09.335Z,100050.63
2023-06-17T17:25:08.564Z,100042.94
2023-06-17T17:30:08.332Z,100044.50
2023-06-17T17:35:07.924Z,100040.31
2023-06-17T17:40:07.856Z,100055.09
2023-06-17T17:45:07.686Z,100048.16
2023-06-17T17:50:07.591Z,100052.34
2023-06-17T17:55:07.024Z,100057.78
2023-06-17T18:00:07.051Z,100059.19
2023-06-17T18:05:13.190Z,100056.78
2023-06-17T18:10:12.230Z,100064.59
2023-06-17T18:15:11.784Z,100063.50
2023-06-17T18:20:13.743Z,100066.75
2023-06-17T18:25:12.708Z,100076.22
2023-06-17T18:30:12.104Z,100076.16
2023-06-17T18:35:11.113Z,100070.84
2023-06-17T18:40:10.447Z,100072.03
2023-06-17T18:45:10.312Z,100066.47
2023-06-17T18:50:09.552Z,100063.31
2023-06-17T18:55:09.054Z,100067.31
2023-06-17T19:00:08.669Z,100067.09
2023-06-17T19:05:08.050Z,100071.19
2023-06-17T19:10:07.508Z,100077.00
2023-06-17T19:15:10.039Z,100076.16
2023-06-17T19:20:09.922Z,100082.88
2023-06-17T19:25:09.441Z,100087.28
2023-06-17T19:30:08.686Z,100097.09
2023-06-17T19:35:07.869Z,100100.28
2023-06-17T19:40:07.459Z,100103.41
2023-06-17T19:45:07.348Z,100094.91
2023-06-17T19:50:06.820Z,100102.09
2023-06-17T19:55:06.270Z,100098.03
2023-06-17T20:00:05.995Z,100090.38
2023-06-17T20:05:12.501Z,100094.72
2023-06-17T20:10:11.459Z,100088.81
2023-06-17T20:15:11.199Z,100107.25
2023-06-17T20:20:11.735Z,100099.84
2023-06-17T20:25:11.785Z,100103.50
2023-06-17T20:30:11.144Z,100113.50
2023-06-17T20:35:10.146Z,100114.91
2023-06-17T20:40:09.533Z,100113.00
2023-06-17T20:45:09.378Z,100115.38
2023-06-17T20:50:08.802Z,100122.59
2023-06-17T20:55:08.159Z,100114.69
2023-06-17T21:00:07.691Z,100113.72
2023-06-17T21:05:06.761Z,100116.44
2023-06-17T21:10:06.566Z,100119.16
2023-06-17T21:15:06.440Z,100119.50
2023-06-17T21:20:09.506Z,100123.84
2023-06-17T21:25:09.271Z,100116.03
2023-06-17T21:30:08.631Z,100114.63
2023-06-17T21:35:07.858Z,100128.75
2023-06-17T21:40:07.436Z,100123.84
2023-06-17T21:45:07.082Z,100134.91
2023-06-17T21:50:06.511Z,100139.16
2023-06-17T21:55:05.977Z,100130.69
2023-06-17T22:00:06.701Z,100129.03
2023-06-17T22:05:11.245Z,100135.59
2023-06-17T22:10:10.563Z,100139.16
2023-06-17T22:15:09.882Z,100138.03
2023-06-17T22:20:09.182Z,100135.88
2023-06-17T22:25:08.446Z,100128.25
2023-06-17T22:30:08.121Z,100130.13
2023-06-17T22:35:07.167Z,100124.13
2023-06-17T22:40:07.788Z,100110.00
2023-06-17T22:45:07.622Z,100123.88
2023-06-17T22:50:07.276Z,100127.41
2023-06-17T22:55:06.494Z,100121.97
2023-06-17T23:00:07.851Z,100130.97
2023-06-17T23:05:06.956Z,100130.41
2023-06-17T23:10:06.230Z,100134.75
2023-06-17T23:15:05.513Z,100143.81
2023-06-17T23:20:04.891Z,100140.78
2023-06-17T23:25:07.831Z,100136.69
2023-06-17T23:30:08.813Z,100135.88
2023-06-17T23:35:07.871Z,100125.22
2023-06-17T23:40:07.364Z,100124.44
2023-06-17T23:45:09.454Z,100110.53
2023-06-17T23:50:09.140Z,100114.91
2023-06-17T23:55:08.590Z,100118.94
